sensor_id;sensor_type;location;lat;lon;timestamp;temperature;humidity
23520;DHT22;11936;50.820;4.336;2024-01-25T00:00:49;10.90;99.90
23520;DHT22;11936;50.820;4.336;2024-01-25T00:03:15;10.90;99.90
23520;DHT22;11936;50.820;4.336;2024-01-25T00:05:40;11.00;99.90
23520;DHT22;11936;50.820;4.336;2024-01-25T00:08:06;10.90;99.90
23520;DHT22;11936;50.820;4.336;2024-01-25T00:10:32;10.90;99.90
23520;DHT22;11936;50.820;4.336;2024-01-25T00:12:57;10.90;99.90
23520;DHT22;11936;50.820;4.336;2024-01-25T00:15:23;10.80;99.90
23520;DHT22;11936;50.820;4.336;2024-01-25T00:17:48;10.90;99.90
23520;DHT22;11936;50.820;4.336;2024-01-25T00:20:15;11.00;99.90
23520;DHT22;11936;50.820;4.336;2024-01-25T00:22:40;11.00;99.90
23520;DHT22;11936;50.820;4.336;2024-01-25T00:25:07;11.00;99.90
23520;DHT22;11936;50.820;4.336;2024-01-25T00:27:33;10.90;99.90
23520;DHT22;11936;50.820;4.336;2024-01-25T00:29:58;10.90;99.90
23520;DHT22;11936;50.820;4.336;2024-01-25T00:32:24;10.80;99.90
23520;DHT22;11936;50.820;4.336;2024-01-25T00:34:49;10.80;99.90
23520;DHT22;11936;50.820;4.336;2024-01-25T00:37:15;10.80;99.90
23520;DHT22;11936;50.820;4.336;2024-01-25T00:39:41;10.90;99.90
23520;DHT22;11936;50.820;4.336;2024-01-25T00:42:07;10.90;99.90
23520;DHT22;11936;50.820;4.336;2024-01-25T00:44:35;10.90;99.90
23520;DHT22;11936;50.820;4.336;2024-01-25T00:47:00;10.90;99.90
23520;DHT22;11936;50.820;4.336;2024-01-25T00:49:26;10.90;99.90
23520;DHT22;11936;50.820;4.336;2024-01-25T00:51:58;10.80;99.90
23520;DHT22;11936;50.820;4.336;2024-01-25T00:54:25;10.70;99.90
23520;DHT22;11936;50.820;4.336;2024-01-25T00:56:51;10.60;99.90
23520;DHT22;11936;50.820;4.336;2024-01-25T00:59:18;10.50;99.90
23520;DHT22;11936;50.820;4.336;2024-01-25T01:01:47;10.50;99.90
23520;DHT22;11936;50.820;4.336;2024-01-25T01:04:14;10.40;99.90
23520;DHT22;11936;50.820;4.336;2024-01-25T01:06:39;10.40;99.90
23520;DHT22;11936;50.820;4.336;2024-01-25T01:09:05;10.30;99.90
23520;DHT22;11936;50.820;4.336;2024-01-25T01:11:31;10.50;99.90
23520;DHT22;11936;50.820;4.336;2024-01-25T01:13:57;10.60;99.90
23520;DHT22;11936;50.820;4.336;2024-01-25T01:16:22;10.50;99.90
23520;DHT22;11936;50.820;4.336;2024-01-25T01:18:48;10.60;99.90
23520;DHT22;11936;50.820;4.336;2024-01-25T01:21:13;10.60;99.90
23520;DHT22;11936;50.820;4.336;2024-01-25T01:23:39;10.40;99.90
23520;DHT22;11936;50.820;4.336;2024-01-25T01:26:05;10.40;99.90
23520;DHT22;11936;50.820;4.336;2024-01-25T01:28:31;10.40;99.90
23520;DHT22;11936;50.820;4.336;2024-01-25T01:30:57;10.50;99.90
23520;DHT22;11936;50.820;4.336;2024-01-25T01:33:22;10.50;99.90
23520;DHT22;11936;50.820;4.336;2024-01-25T01:35:48;10.50;99.90
23520;DHT22;11936;50.820;4.336;2024-01-25T01:38:13;10.50;99.90
23520;DHT22;11936;50.820;4.336;2024-01-25T01:40:39;10.40;99.90
23520;DHT22;11936;50.820;4.336;2024-01-25T01:43:05;10.50;99.90
23520;DHT22;11936;50.820;4.336;2024-01-25T01:45:30;10.30;99.90
23520;DHT22;11936;50.820;4.336;2024-01-25T01:47:56;10.30;99.90
23520;DHT22;11936;50.820;4.336;2024-01-25T01:50:22;10.30;99.90
23520;DHT22;11936;50.820;4.336;2024-01-25T01:52:49;10.20;99.90
23520;DHT22;11936;50.820;4.336;2024-01-25T01:55:17;10.30;99.90
23520;DHT22;11936;50.820;4.336;2024-01-25T01:57:43;10.20;99.90
23520;DHT22;11936;50.820;4.336;2024-01-25T02:00:09;10.20;99.90
23520;DHT22;11936;50.820;4.336;2024-01-25T02:02:35;10.10;99.90
23520;DHT22;11936;50.820;4.336;2024-01-25T02:05:01;10.10;99.90
23520;DHT22;11936;50.820;4.336;2024-01-25T02:07:27;10.20;99.90
23520;DHT22;11936;50.820;4.336;2024-01-25T02:09:53;10.20;99.90
23520;DHT22;11936;50.820;4.336;2024-01-25T02:12:19;10.20;99.90
23520;DHT22;11936;50.820;4.336;2024-01-25T02:14:45;10.20;99.90
23520;DHT22;11936;50.820;4.336;2024-01-25T02:17:11;10.10;99.90
23520;DHT22;11936;50.820;4.336;2024-01-25T02:19:36;10.10;99.90
23520;DHT22;11936;50.820;4.336;2024-01-25T02:22:04;10.20;99.90
23520;DHT22;11936;50.820;4.336;2024-01-25T02:24:30;10.20;99.90
23520;DHT22;11936;50.820;4.336;2024-01-25T02:26:56;10.30;99.90
23520;DHT22;11936;50.820;4.336;2024-01-25T02:29:21;10.30;99.90
23520;DHT22;11936;50.820;4.336;2024-01-25T02:31:47;10.20;99.90
23520;DHT22;11936;50.820;4.336;2024-01-25T02:34:13;10.20;99.90
23520;DHT22;11936;50.820;4.336;2024-01-25T02:36:38;10.30;99.90
23520;DHT22;11936;50.820;4.336;2024-01-25T02:39:04;10.20;99.90
23520;DHT22;11936;50.820;4.336;2024-01-25T02:41:31;10.20;99.90
23520;DHT22;11936;50.820;4.336;2024-01-25T02:43:56;10.10;99.90
23520;DHT22;11936;50.820;4.336;2024-01-25T02:46:23;10.00;99.90
23520;DHT22;11936;50.820;4.336;2024-01-25T02:48:48;10.00;99.90
23520;DHT22;11936;50.820;4.336;2024-01-25T02:51:14;9.90;99.90
23520;DHT22;11936;50.820;4.336;2024-01-25T02:53:40;9.80;99.90
23520;DHT22;11936;50.820;4.336;2024-01-25T02:56:06;9.90;99.90
23520;DHT22;11936;50.820;4.336;2024-01-25T02:58:32;9.90;99.90
23520;DHT22;11936;50.820;4.336;2024-01-25T03:00:58;9.90;99.90
23520;DHT22;11936;50.820;4.336;2024-01-25T03:03:24;9.90;99.90
23520;DHT22;11936;50.820;4.336;2024-01-25T03:05:51;9.80;99.90
23520;DHT22;11936;50.820;4.336;2024-01-25T03:08:17;9.80;99.90
23520;DHT22;11936;50.820;4.336;2024-01-25T03:10:43;9.80;99.90
23520;DHT22;11936;50.820;4.336;2024-01-25T03:13:08;9.80;99.90
23520;DHT22;11936;50.820;4.336;2024-01-25T03:15:34;9.80;99.90
23520;DHT22;11936;50.820;4.336;2024-01-25T03:17:59;9.80;99.90
23520;DHT22;11936;50.820;4.336;2024-01-25T03:20:25;9.80;99.90
23520;DHT22;11936;50.820;4.336;2024-01-25T03:22:50;9.80;99.90
23520;DHT22;11936;50.820;4.336;2024-01-25T03:25:16;9.90;99.90
23520;DHT22;11936;50.820;4.336;2024-01-25T03:27:41;9.90;99.90
23520;DHT22;11936;50.820;4.336;2024-01-25T03:30:07;9.90;99.90
23520;DHT22;11936;50.820;4.336;2024-01-25T03:32:34;9.90;99.90
23520;DHT22;11936;50.820;4.336;2024-01-25T03:35:00;10.00;99.90
23520;DHT22;11936;50.820;4.336;2024-01-25T03:37:25;10.00;99.90
23520;DHT22;11936;50.820;4.336;2024-01-25T03:39:51;9.90;99.90
23520;DHT22;11936;50.820;4.336;2024-01-25T03:42:16;9.80;99.90
23520;DHT22;11936;50.820;4.336;2024-01-25T03:44:42;9.70;99.90
23520;DHT22;11936;50.820;4.336;2024-01-25T03:47:10;9.70;99.90
23520;DHT22;11936;50.820;4.336;2024-01-25T03:49:36;9.50;99.90
23520;DHT22;11936;50.820;4.336;2024-01-25T03:52:01;9.60;99.90
23520;DHT22;11936;50.820;4.336;2024-01-25T03:54:28;9.60;99.90
23520;DHT22;11936;50.820;4.336;2024-01-25T03:56:53;9.50;99.90
23520;DHT22;11936;50.820;4.336;2024-01-25T03:59:19;9.60;99.90
23520;DHT22;11936;50.820;4.336;2024-01-25T04:01:44;9.60;99.90
23520;DHT22;11936;50.820;4.336;2024-01-25T04:04:12;9.60;99.90
23520;DHT22;11936;50.820;4.336;2024-01-25T04:06:41;9.70;99.90
23520;DHT22;11936;50.820;4.336;2024-01-25T04:09:08;9.60;99.90
23520;DHT22;11936;50.820;4.336;2024-01-25T04:11:36;9.70;99.90
23520;DHT22;11936;50.820;4.336;2024-01-25T04:14:01;9.60;99.90
23520;DHT22;11936;50.820;4.336;2024-01-25T04:16:27;9.60;99.90
23520;DHT22;11936;50.820;4.336;2024-01-25T04:18:53;9.60;99.90
23520;DHT22;11936;50.820;4.336;2024-01-25T04:21:18;9.60;99.90
23520;DHT22;11936;50.820;4.336;2024-01-25T04:23:44;9.70;99.90
23520;DHT22;11936;50.820;4.336;2024-01-25T04:26:09;9.70;99.90
23520;DHT22;11936;50.820;4.336;2024-01-25T04:28:35;9.70;99.90
23520;DHT22;11936;50.820;4.336;2024-01-25T04:31:02;9.70;99.90
23520;DHT22;11936;50.820;4.336;2024-01-25T04:33:28;9.70;99.90
23520;DHT22;11936;50.820;4.336;2024-01-25T04:35:54;9.70;99.90
23520;DHT22;11936;50.820;4.336;2024-01-25T04:38:20;9.70;99.90
23520;DHT22;11936;50.820;4.336;2024-01-25T04:40:46;9.60;99.90
23520;DHT22;11936;50.820;4.336;2024-01-25T04:43:11;9.60;99.90
23520;DHT22;11936;50.820;4.336;2024-01-25T04:45:37;9.60;99.90
23520;DHT22;11936;50.820;4.336;2024-01-25T04:48:03;9.60;99.90
23520;DHT22;11936;50.820;4.336;2024-01-25T04:50:29;9.70;99.90
23520;DHT22;11936;50.820;4.336;2024-01-25T04:52:55;9.80;99.90
23520;DHT22;11936;50.820;4.336;2024-01-25T04:55:20;9.80;99.90
23520;DHT22;11936;50.820;4.336;2024-01-25T04:57:46;9.70;99.90
23520;DHT22;11936;50.820;4.336;2024-01-25T05:00:13;9.70;99.90
23520;DHT22;11936;50.820;4.336;2024-01-25T05:02:39;9.70;99.90
23520;DHT22;11936;50.820;4.336;2024-01-25T05:05:05;9.60;99.90
23520;DHT22;11936;50.820;4.336;2024-01-25T05:07:30;9.70;99.90
23520;DHT22;11936;50.820;4.336;2024-01-25T05:09:56;9.70;99.90
23520;DHT22;11936;50.820;4.336;2024-01-25T05:12:22;9.70;99.90
23520;DHT22;11936;50.820;4.336;2024-01-25T05:14:48;9.70;99.90
23520;DHT22;11936;50.820;4.336;2024-01-25T05:17:13;9.70;99.90
23520;DHT22;11936;50.820;4.336;2024-01-25T05:19:39;9.60;99.90
23520;DHT22;11936;50.820;4.336;2024-01-25T05:22:04;9.60;99.90
23520;DHT22;11936;50.820;4.336;2024-01-25T05:24:33;9.50;99.90
23520;DHT22;11936;50.820;4.336;2024-01-25T05:26:59;9.20;99.90
23520;DHT22;11936;50.820;4.336;2024-01-25T05:29:25;9.30;99.90
23520;DHT22;11936;50.820;4.336;2024-01-25T05:31:50;9.30;99.90
23520;DHT22;11936;50.820;4.336;2024-01-25T05:34:16;9.40;99.90
23520;DHT22;11936;50.820;4.336;2024-01-25T05:36:41;9.30;99.90
23520;DHT22;11936;50.820;4.336;2024-01-25T05:39:07;9.40;99.90
23520;DHT22;11936;50.820;4.336;2024-01-25T05:41:34;9.50;99.90
23520;DHT22;11936;50.820;4.336;2024-01-25T05:43:59;9.60;99.90
23520;DHT22;11936;50.820;4.336;2024-01-25T05:46:25;9.60;99.90
23520;DHT22;11936;50.820;4.336;2024-01-25T05:48:51;9.40;99.90
23520;DHT22;11936;50.820;4.336;2024-01-25T05:51:17;9.50;99.90
23520;DHT22;11936;50.820;4.336;2024-01-25T05:53:43;9.60;99.90
23520;DHT22;11936;50.820;4.336;2024-01-25T05:56:08;9.50;99.90
23520;DHT22;11936;50.820;4.336;2024-01-25T05:58:34;9.50;99.90
23520;DHT22;11936;50.820;4.336;2024-01-25T06:01:00;9.60;99.90
23520;DHT22;11936;50.820;4.336;2024-01-25T06:03:25;9.70;99.90
23520;DHT22;11936;50.820;4.336;2024-01-25T06:05:51;9.60;99.90
23520;DHT22;11936;50.820;4.336;2024-01-25T06:08:17;9.60;99.90
23520;DHT22;11936;50.820;4.336;2024-01-25T06:10:42;9.50;99.90
23520;DHT22;11936;50.820;4.336;2024-01-25T06:13:08;9.40;99.90
23520;DHT22;11936;50.820;4.336;2024-01-25T06:15:34;9.50;99.90
23520;DHT22;11936;50.820;4.336;2024-01-25T06:18:00;9.50;99.90
23520;DHT22;11936;50.820;4.336;2024-01-25T06:20:25;9.50;99.90
23520;DHT22;11936;50.820;4.336;2024-01-25T06:22:51;9.60;99.90
23520;DHT22;11936;50.820;4.336;2024-01-25T06:25:17;9.50;99.90
23520;DHT22;11936;50.820;4.336;2024-01-25T06:27:42;9.50;99.90
23520;DHT22;11936;50.820;4.336;2024-01-25T06:30:09;9.50;99.90
23520;DHT22;11936;50.820;4.336;2024-01-25T06:32:35;9.50;99.90
23520;DHT22;11936;50.820;4.336;2024-01-25T06:35:00;9.50;99.90
23520;DHT22;11936;50.820;4.336;2024-01-25T06:37:27;9.50;99.90
23520;DHT22;11936;50.820;4.336;2024-01-25T06:39:52;9.50;99.90
23520;DHT22;11936;50.820;4.336;2024-01-25T06:42:18;9.40;99.90
23520;DHT22;11936;50.820;4.336;2024-01-25T06:44:44;9.40;99.90
23520;DHT22;11936;50.820;4.336;2024-01-25T06:47:10;9.50;99.90
23520;DHT22;11936;50.820;4.336;2024-01-25T06:49:35;9.20;99.90
23520;DHT22;11936;50.820;4.336;2024-01-25T06:52:01;9.10;99.90
23520;DHT22;11936;50.820;4.336;2024-01-25T06:54:27;9.20;99.90
23520;DHT22;11936;50.820;4.336;2024-01-25T06:56:52;9.30;99.90
23520;DHT22;11936;50.820;4.336;2024-01-25T06:59:18;9.30;99.90
23520;DHT22;11936;50.820;4.336;2024-01-25T07:01:44;9.10;99.90
23520;DHT22;11936;50.820;4.336;2024-01-25T07:04:09;9.10;99.90
23520;DHT22;11936;50.820;4.336;2024-01-25T07:06:35;8.90;99.90
23520;DHT22;11936;50.820;4.336;2024-01-25T07:09:00;9.00;99.90
23520;DHT22;11936;50.820;4.336;2024-01-25T07:11:26;9.00;99.90
23520;DHT22;11936;50.820;4.336;2024-01-25T07:13:51;9.20;99.90
23520;DHT22;11936;50.820;4.336;2024-01-25T07:16:17;9.20;99.90
23520;DHT22;11936;50.820;4.336;2024-01-25T07:18:44;9.20;99.90
23520;DHT22;11936;50.820;4.336;2024-01-25T07:21:10;9.10;99.90
23520;DHT22;11936;50.820;4.336;2024-01-25T07:23:36;9.00;99.90
23520;DHT22;11936;50.820;4.336;2024-01-25T07:26:01;8.90;99.90
23520;DHT22;11936;50.820;4.336;2024-01-25T07:28:27;9.00;99.90
23520;DHT22;11936;50.820;4.336;2024-01-25T07:30:53;9.10;99.90
23520;DHT22;11936;50.820;4.336;2024-01-25T07:33:18;9.10;99.90
23520;DHT22;11936;50.820;4.336;2024-01-25T07:35:44;9.00;99.90
23520;DHT22;11936;50.820;4.336;2024-01-25T07:38:13;9.00;99.90
23520;DHT22;11936;50.820;4.336;2024-01-25T07:40:39;8.90;99.90
23520;DHT22;11936;50.820;4.336;2024-01-25T07:43:05;9.10;99.90
23520;DHT22;11936;50.820;4.336;2024-01-25T07:45:31;9.00;99.90
23520;DHT22;11936;50.820;4.336;2024-01-25T07:47:57;9.10;99.90
23520;DHT22;11936;50.820;4.336;2024-01-25T07:50:23;9.20;99.90
23520;DHT22;11936;50.820;4.336;2024-01-25T07:52:48;9.30;99.90
23520;DHT22;11936;50.820;4.336;2024-01-25T07:55:15;9.40;99.90
23520;DHT22;11936;50.820;4.336;2024-01-25T07:57:41;9.40;99.90
23520;DHT22;11936;50.820;4.336;2024-01-25T08:00:07;9.10;99.90
23520;DHT22;11936;50.820;4.336;2024-01-25T08:02:35;8.90;99.90
23520;DHT22;11936;50.820;4.336;2024-01-25T08:05:01;9.00;99.90
23520;DHT22;11936;50.820;4.336;2024-01-25T08:07:27;8.90;99.90
23520;DHT22;11936;50.820;4.336;2024-01-25T08:09:52;9.00;99.90
23520;DHT22;11936;50.820;4.336;2024-01-25T08:12:18;9.10;99.90
23520;DHT22;11936;50.820;4.336;2024-01-25T08:14:44;9.20;99.90
23520;DHT22;11936;50.820;4.336;2024-01-25T08:17:10;9.20;99.90
23520;DHT22;11936;50.820;4.336;2024-01-25T08:19:35;9.20;99.90
23520;DHT22;11936;50.820;4.336;2024-01-25T08:22:01;9.20;99.90
23520;DHT22;11936;50.820;4.336;2024-01-25T08:24:27;9.10;99.90
23520;DHT22;11936;50.820;4.336;2024-01-25T08:26:53;9.20;99.90
23520;DHT22;11936;50.820;4.336;2024-01-25T08:29:18;9.20;99.90
23520;DHT22;11936;50.820;4.336;2024-01-25T08:31:44;9.20;99.90
23520;DHT22;11936;50.820;4.336;2024-01-25T08:34:10;9.30;99.90
23520;DHT22;11936;50.820;4.336;2024-01-25T08:36:35;9.30;99.90
23520;DHT22;11936;50.820;4.336;2024-01-25T08:39:01;9.30;99.90
23520;DHT22;11936;50.820;4.336;2024-01-25T08:41:26;9.40;99.90
23520;DHT22;11936;50.820;4.336;2024-01-25T08:43:52;9.30;99.90
23520;DHT22;11936;50.820;4.336;2024-01-25T08:46:18;9.40;99.90
23520;DHT22;11936;50.820;4.336;2024-01-25T08:48:43;9.30;99.90
23520;DHT22;11936;50.820;4.336;2024-01-25T08:51:09;9.20;99.90
23520;DHT22;11936;50.820;4.336;2024-01-25T08:53:34;9.30;99.90
23520;DHT22;11936;50.820;4.336;2024-01-25T08:56:00;9.40;99.90
23520;DHT22;11936;50.820;4.336;2024-01-25T08:58:25;9.30;99.90
23520;DHT22;11936;50.820;4.336;2024-01-25T09:00:51;9.40;99.90
23520;DHT22;11936;50.820;4.336;2024-01-25T09:03:17;9.50;99.90
23520;DHT22;11936;50.820;4.336;2024-01-25T09:05:42;9.60;99.90
23520;DHT22;11936;50.820;4.336;2024-01-25T09:08:11;9.70;99.90
23520;DHT22;11936;50.820;4.336;2024-01-25T09:10:37;9.60;99.90
23520;DHT22;11936;50.820;4.336;2024-01-25T09:13:04;9.30;99.90
23520;DHT22;11936;50.820;4.336;2024-01-25T09:15:29;9.40;99.90
23520;DHT22;11936;50.820;4.336;2024-01-25T09:17:55;9.50;99.90
23520;DHT22;11936;50.820;4.336;2024-01-25T09:20:20;9.70;99.90
23520;DHT22;11936;50.820;4.336;2024-01-25T09:22:46;9.70;99.90
23520;DHT22;11936;50.820;4.336;2024-01-25T09:25:13;9.90;99.90
23520;DHT22;11936;50.820;4.336;2024-01-25T09:27:38;9.80;99.90
23520;DHT22;11936;50.820;4.336;2024-01-25T09:30:05;9.90;99.90
23520;DHT22;11936;50.820;4.336;2024-01-25T09:32:31;9.90;99.90
23520;DHT22;11936;50.820;4.336;2024-01-25T09:34:56;10.10;99.90
23520;DHT22;11936;50.820;4.336;2024-01-25T09:37:22;10.00;99.90
23520;DHT22;11936;50.820;4.336;2024-01-25T09:39:50;10.10;99.90
23520;DHT22;11936;50.820;4.336;2024-01-25T09:42:17;10.20;99.90
23520;DHT22;11936;50.820;4.336;2024-01-25T09:44:43;10.20;99.90
23520;DHT22;11936;50.820;4.336;2024-01-25T09:47:09;10.40;99.90
23520;DHT22;11936;50.820;4.336;2024-01-25T09:49:35;10.50;99.90
23520;DHT22;11936;50.820;4.336;2024-01-25T09:52:02;10.60;99.90
23520;DHT22;11936;50.820;4.336;2024-01-25T09:54:36;10.70;99.90
23520;DHT22;11936;50.820;4.336;2024-01-25T09:57:22;10.70;99.90
23520;DHT22;11936;50.820;4.336;2024-01-25T09:59:49;10.80;99.90
23520;DHT22;11936;50.820;4.336;2024-01-25T10:02:16;10.40;99.90
23520;DHT22;11936;50.820;4.336;2024-01-25T10:04:41;10.30;99.90
23520;DHT22;11936;50.820;4.336;2024-01-25T10:07:07;10.40;99.90
23520;DHT22;11936;50.820;4.336;2024-01-25T10:09:42;10.40;99.90
23520;DHT22;11936;50.820;4.336;2024-01-25T10:12:08;10.20;99.90
23520;DHT22;11936;50.820;4.336;2024-01-25T10:14:33;10.10;99.90
23520;DHT22;11936;50.820;4.336;2024-01-25T10:17:00;10.30;99.90
23520;DHT22;11936;50.820;4.336;2024-01-25T10:19:26;10.50;99.90
23520;DHT22;11936;50.820;4.336;2024-01-25T10:21:51;10.40;99.90
23520;DHT22;11936;50.820;4.336;2024-01-25T10:24:17;10.50;99.90
23520;DHT22;11936;50.820;4.336;2024-01-25T10:26:43;10.60;99.90
23520;DHT22;11936;50.820;4.336;2024-01-25T10:29:09;10.50;99.90
23520;DHT22;11936;50.820;4.336;2024-01-25T10:31:38;10.40;99.90
23520;DHT22;11936;50.820;4.336;2024-01-25T10:34:06;10.50;99.90
23520;DHT22;11936;50.820;4.336;2024-01-25T10:36:33;10.40;99.90
23520;DHT22;11936;50.820;4.336;2024-01-25T10:38:59;10.50;99.90
23520;DHT22;11936;50.820;4.336;2024-01-25T10:41:31;10.40;99.90
23520;DHT22;11936;50.820;4.336;2024-01-25T10:43:57;10.60;99.90
23520;DHT22;11936;50.820;4.336;2024-01-25T10:46:24;10.70;99.90
23520;DHT22;11936;50.820;4.336;2024-01-25T10:48:50;10.80;99.90
23520;DHT22;11936;50.820;4.336;2024-01-25T10:51:16;10.90;99.90
23520;DHT22;11936;50.820;4.336;2024-01-25T10:53:44;10.90;99.90
23520;DHT22;11936;50.820;4.336;2024-01-25T10:56:11;10.80;99.90
23520;DHT22;11936;50.820;4.336;2024-01-25T10:58:41;10.90;99.90
23520;DHT22;11936;50.820;4.336;2024-01-25T11:01:10;10.80;99.90
23520;DHT22;11936;50.820;4.336;2024-01-25T11:03:39;10.90;99.90
23520;DHT22;11936;50.820;4.336;2024-01-25T11:06:08;10.90;99.90
23520;DHT22;11936;50.820;4.336;2024-01-25T11:08:35;10.70;99.90
23520;DHT22;11936;50.820;4.336;2024-01-25T11:11:03;10.70;99.90
23520;DHT22;11936;50.820;4.336;2024-01-25T11:13:28;10.70;99.90
23520;DHT22;11936;50.820;4.336;2024-01-25T11:15:55;10.80;99.90
23520;DHT22;11936;50.820;4.336;2024-01-25T11:18:25;10.90;99.90
23520;DHT22;11936;50.820;4.336;2024-01-25T11:20:51;10.90;99.90
23520;DHT22;11936;50.820;4.336;2024-01-25T11:23:17;11.00;99.90
23520;DHT22;11936;50.820;4.336;2024-01-25T11:25:45;10.90;99.90
23520;DHT22;11936;50.820;4.336;2024-01-25T11:28:14;11.00;99.90
23520;DHT22;11936;50.820;4.336;2024-01-25T11:30:43;11.10;99.90
23520;DHT22;11936;50.820;4.336;2024-01-25T11:33:08;11.00;99.90
23520;DHT22;11936;50.820;4.336;2024-01-25T11:35:35;11.20;99.90
23520;DHT22;11936;50.820;4.336;2024-01-25T11:38:00;11.20;99.90
23520;DHT22;11936;50.820;4.336;2024-01-25T11:40:27;11.20;99.90
23520;DHT22;11936;50.820;4.336;2024-01-25T11:42:54;11.00;99.90
23520;DHT22;11936;50.820;4.336;2024-01-25T11:45:23;11.20;99.90
23520;DHT22;11936;50.820;4.336;2024-01-25T11:47:49;11.30;99.90
23520;DHT22;11936;50.820;4.336;2024-01-25T11:50:15;11.20;99.90
23520;DHT22;11936;50.820;4.336;2024-01-25T11:52:40;11.20;99.90
23520;DHT22;11936;50.820;4.336;2024-01-25T11:55:08;11.20;99.90
23520;DHT22;11936;50.820;4.336;2024-01-25T11:57:39;11.10;99.90
23520;DHT22;11936;50.820;4.336;2024-01-25T12:00:07;11.20;99.90
23520;DHT22;11936;50.820;4.336;2024-01-25T12:02:35;11.10;99.90
23520;DHT22;11936;50.820;4.336;2024-01-25T12:05:02;11.00;99.90
23520;DHT22;11936;50.820;4.336;2024-01-25T12:07:30;11.00;99.90
23520;DHT22;11936;50.820;4.336;2024-01-25T12:10:07;11.00;99.90
23520;DHT22;11936;50.820;4.336;2024-01-25T12:12:35;11.00;99.90
23520;DHT22;11936;50.820;4.336;2024-01-25T12:15:02;10.90;99.90
23520;DHT22;11936;50.820;4.336;2024-01-25T12:17:29;11.00;99.90
23520;DHT22;11936;50.820;4.336;2024-01-25T12:19:59;11.00;99.90
23520;DHT22;11936;50.820;4.336;2024-01-25T12:22:27;11.00;99.90
23520;DHT22;11936;50.820;4.336;2024-01-25T12:24:53;11.00;99.90
23520;DHT22;11936;50.820;4.336;2024-01-25T12:27:23;11.00;99.90
23520;DHT22;11936;50.820;4.336;2024-01-25T12:29:53;10.90;99.90
23520;DHT22;11936;50.820;4.336;2024-01-25T12:32:20;10.90;99.90
23520;DHT22;11936;50.820;4.336;2024-01-25T12:34:56;10.80;99.90
23520;DHT22;11936;50.820;4.336;2024-01-25T12:37:22;10.80;99.90
23520;DHT22;11936;50.820;4.336;2024-01-25T12:39:49;11.00;99.90
23520;DHT22;11936;50.820;4.336;2024-01-25T12:42:15;11.00;99.90
23520;DHT22;11936;50.820;4.336;2024-01-25T12:44:41;11.10;99.90
23520;DHT22;11936;50.820;4.336;2024-01-25T12:47:06;11.10;99.90
23520;DHT22;11936;50.820;4.336;2024-01-25T12:49:33;11.10;99.90
23520;DHT22;11936;50.820;4.336;2024-01-25T12:51:59;10.90;99.90
23520;DHT22;11936;50.820;4.336;2024-01-25T12:54:26;11.00;99.90
23520;DHT22;11936;50.820;4.336;2024-01-25T12:56:51;10.90;99.90
23520;DHT22;11936;50.820;4.336;2024-01-25T12:59:17;11.00;99.90
23520;DHT22;11936;50.820;4.336;2024-01-25T13:01:43;11.10;99.90
23520;DHT22;11936;50.820;4.336;2024-01-25T13:04:08;11.10;99.90
23520;DHT22;11936;50.820;4.336;2024-01-25T13:06:34;11.30;99.90
23520;DHT22;11936;50.820;4.336;2024-01-25T13:09:00;11.20;99.90
23520;DHT22;11936;50.820;4.336;2024-01-25T13:11:25;11.40;99.90
23520;DHT22;11936;50.820;4.336;2024-01-25T13:13:51;11.30;99.90
23520;DHT22;11936;50.820;4.336;2024-01-25T13:16:17;11.30;99.90
23520;DHT22;11936;50.820;4.336;2024-01-25T13:18:42;11.20;99.90
23520;DHT22;11936;50.820;4.336;2024-01-25T13:21:09;11.10;99.90
23520;DHT22;11936;50.820;4.336;2024-01-25T13:23:34;11.20;99.90
23520;DHT22;11936;50.820;4.336;2024-01-25T13:26:01;11.20;99.90
23520;DHT22;11936;50.820;4.336;2024-01-25T13:28:27;11.10;99.90
23520;DHT22;11936;50.820;4.336;2024-01-25T13:30:52;11.10;99.90
23520;DHT22;11936;50.820;4.336;2024-01-25T13:33:19;11.10;99.90
23520;DHT22;11936;50.820;4.336;2024-01-25T13:35:45;11.30;99.90
23520;DHT22;11936;50.820;4.336;2024-01-25T13:38:11;11.40;99.90
23520;DHT22;11936;50.820;4.336;2024-01-25T13:40:40;11.60;99.90
23520;DHT22;11936;50.820;4.336;2024-01-25T13:43:05;11.60;99.90
23520;DHT22;11936;50.820;4.336;2024-01-25T13:45:31;11.60;99.90
23520;DHT22;11936;50.820;4.336;2024-01-25T13:47:57;11.50;99.90
23520;DHT22;11936;50.820;4.336;2024-01-25T13:50:22;11.50;99.90
23520;DHT22;11936;50.820;4.336;2024-01-25T13:52:48;11.50;99.90
23520;DHT22;11936;50.820;4.336;2024-01-25T13:55:13;11.60;99.90
23520;DHT22;11936;50.820;4.336;2024-01-25T13:57:39;11.60;99.90
23520;DHT22;11936;50.820;4.336;2024-01-25T14:00:05;11.70;99.90
23520;DHT22;11936;50.820;4.336;2024-01-25T14:02:32;11.70;99.90
23520;DHT22;11936;50.820;4.336;2024-01-25T14:04:58;11.70;99.90
23520;DHT22;11936;50.820;4.336;2024-01-25T14:07:23;11.70;99.90
23520;DHT22;11936;50.820;4.336;2024-01-25T14:09:49;11.60;99.90
23520;DHT22;11936;50.820;4.336;2024-01-25T14:12:14;11.80;99.90
23520;DHT22;11936;50.820;4.336;2024-01-25T14:14:40;11.90;99.90
23520;DHT22;11936;50.820;4.336;2024-01-25T14:17:06;11.60;99.90
23520;DHT22;11936;50.820;4.336;2024-01-25T14:19:32;11.60;99.90
23520;DHT22;11936;50.820;4.336;2024-01-25T14:21:57;11.60;99.90
23520;DHT22;11936;50.820;4.336;2024-01-25T14:24:23;11.70;99.90
23520;DHT22;11936;50.820;4.336;2024-01-25T14:26:48;11.70;99.90
23520;DHT22;11936;50.820;4.336;2024-01-25T14:29:14;11.50;99.90
23520;DHT22;11936;50.820;4.336;2024-01-25T14:31:40;11.50;99.90
23520;DHT22;11936;50.820;4.336;2024-01-25T14:34:07;11.50;99.90
23520;DHT22;11936;50.820;4.336;2024-01-25T14:36:33;11.50;99.90
23520;DHT22;11936;50.820;4.336;2024-01-25T14:38:59;11.40;99.90
23520;DHT22;11936;50.820;4.336;2024-01-25T14:41:24;11.40;99.90
23520;DHT22;11936;50.820;4.336;2024-01-25T14:43:50;11.40;99.90
23520;DHT22;11936;50.820;4.336;2024-01-25T14:46:21;11.40;99.90
23520;DHT22;11936;50.820;4.336;2024-01-25T14:48:47;11.40;99.90
23520;DHT22;11936;50.820;4.336;2024-01-25T14:51:12;11.40;99.90
23520;DHT22;11936;50.820;4.336;2024-01-25T14:53:39;11.40;99.90
23520;DHT22;11936;50.820;4.336;2024-01-25T14:56:04;11.30;99.90
23520;DHT22;11936;50.820;4.336;2024-01-25T14:58:33;11.30;99.90
23520;DHT22;11936;50.820;4.336;2024-01-25T15:00:59;11.10;99.90
23520;DHT22;11936;50.820;4.336;2024-01-25T15:03:24;11.10;99.90
23520;DHT22;11936;50.820;4.336;2024-01-25T15:05:50;11.20;99.90
23520;DHT22;11936;50.820;4.336;2024-01-25T15:08:15;11.30;99.90
23520;DHT22;11936;50.820;4.336;2024-01-25T15:10:41;11.30;99.90
23520;DHT22;11936;50.820;4.336;2024-01-25T15:13:07;11.30;99.90
23520;DHT22;11936;50.820;4.336;2024-01-25T15:15:34;11.30;99.90
23520;DHT22;11936;50.820;4.336;2024-01-25T15:18:00;11.40;99.90
23520;DHT22;11936;50.820;4.336;2024-01-25T15:20:25;11.40;99.90
23520;DHT22;11936;50.820;4.336;2024-01-25T15:22:51;11.40;99.90
23520;DHT22;11936;50.820;4.336;2024-01-25T15:25:17;11.40;99.90
23520;DHT22;11936;50.820;4.336;2024-01-25T15:27:43;11.30;99.90
23520;DHT22;11936;50.820;4.336;2024-01-25T15:30:09;11.20;99.90